Time;durP1;ratioP1;P1;durP2;ratioP2;P2;SDS_P1;SDS_P2;PMS_P1;PMS_P2;Temp;Humidity;BMP_temperature;BMP_pressure;BME280_temperature;BME280_humidity;BME280_pressure;Samples;Min_cycle;Max_cycle;Signal;HPM_P1;HPM_P2
2023/10/06 00:01:43;;;;;;;19.30;9.02;;;;;;;16.74;62.93;100700.25;5053120;28;20112;-80
2023/10/06 00:04:13;;;;;;;19.08;8.60;;;;;;;16.59;62.78;100702.66;5042343;28;20033;-81
2023/10/06 00:06:42;;;;;;;24.45;10.20;;;;;;;16.57;66.09;100683.25;5051001;28;20047;-81
2023/10/06 00:09:25;;;;;;;32.75;14.13;;;;;;;16.91;65.24;100689.50;5050596;28;20112;-81
2023/10/06 00:11:54;;;;;;;29.35;11.02;;;;;;;16.80;63.12;100680.41;5067022;28;20029;-80
2023/10/06 00:14:38;;;;;;;29.88;12.77;;;;;;;16.92;64.97;100690.28;5054444;28;20040;-82
2023/10/06 00:17:28;;;;;;;31.33;11.07;;;;;;;17.27;63.55;100704.31;5061356;28;20482;-80
2023/10/06 00:19:56;;;;;;;22.88;10.30;;;;;;;17.47;62.08;100693.00;5051424;28;20025;-83
2023/10/06 00:22:26;;;;;;;22.15;9.77;;;;;;;17.12;63.07;100693.34;5066316;28;20122;-80
2023/10/06 00:24:55;;;;;;;22.25;10.55;;;;;;;16.74;63.92;100684.06;5052032;28;20033;-81
2023/10/06 00:27:29;;;;;;;24.60;10.20;;;;;;;17.03;62.46;100689.41;5050624;28;20082;-84
2023/10/06 00:29:55;;;;;;;21.10;9.73;;;;;;;17.03;63.16;100700.19;5051370;28;20029;-81
2023/10/06 00:32:21;;;;;;;20.67;8.93;;;;;;;17.24;61.99;100699.44;5051909;28;20452;-80
2023/10/06 00:34:52;;;;;;;19.45;8.90;;;;;;;16.76;62.63;100668.50;5066341;28;20866;-80
2023/10/06 00:37:22;;;;;;;18.75;8.52;;;;;;;16.74;63.50;100689.47;5057663;28;20028;-80
2023/10/06 00:39:50;;;;;;;19.52;8.63;;;;;;;16.75;62.86;100679.50;5049221;28;20093;-80
2023/10/06 00:42:17;;;;;;;17.33;7.18;;;;;;;16.30;63.32;100673.09;5051280;28;20028;-81
2023/10/06 00:44:46;;;;;;;18.30;8.07;;;;;;;16.50;62.92;100671.81;5068374;28;20127;-81
2023/10/06 00:47:13;;;;;;;22.10;8.43;;;;;;;16.62;62.61;100683.34;5049322;28;20088;-81
2023/10/06 00:49:39;;;;;;;18.35;8.70;;;;;;;16.43;63.08;100667.41;5051435;28;20032;-81
2023/10/06 00:52:07;;;;;;;17.83;7.32;;;;;;;16.06;63.05;100662.44;5065865;28;20033;-80
2023/10/06 00:54:33;;;;;;;17.17;8.45;;;;;;;16.31;65.02;100673.94;5052935;28;20036;-82
2023/10/06 00:57:08;;;;;;;18.98;8.57;;;;;;;16.29;63.89;100682.22;5048811;28;20409;-80
2023/10/06 00:59:37;;;;;;;18.38;8.90;;;;;;;16.46;64.31;100668.78;5049245;28;20048;-81
2023/10/06 01:02:03;;;;;;;21.20;9.65;;;;;;;17.09;62.20;100691.13;5062745;28;20408;-84
2023/10/06 01:04:34;;;;;;;20.20;9.20;;;;;;;16.60;62.70;100680.06;5053790;28;20025;-80
2023/10/06 01:07:00;;;;;;;18.98;9.20;;;;;;;16.43;63.34;100675.50;5057205;28;20028;-79
2023/10/06 01:09:33;;;;;;;20.30;8.80;;;;;;;16.43;63.01;100666.59;5052180;28;20094;-80
2023/10/06 01:11:58;;;;;;;23.15;9.43;;;;;;;16.71;62.98;100654.13;5050525;28;20117;-81
2023/10/06 01:14:27;;;;;;;22.35;10.65;;;;;;;16.74;62.68;100677.88;5051569;28;20029;-82
2023/10/06 01:17:14;;;;;;;28.90;11.32;;;;;;;16.51;62.87;100676.13;5052793;28;20086;-80
2023/10/06 01:19:47;;;;;;;23.30;11.52;;;;;;;16.43;63.25;100677.38;5068921;28;20436;-80
2023/10/06 01:22:24;;;;;;;27.33;11.80;;;;;;;16.58;63.57;100668.72;5053302;28;20045;-80
2023/10/06 01:24:53;;;;;;;26.02;10.50;;;;;;;16.53;63.96;100665.94;5053312;28;20109;-80
2023/10/06 01:27:19;;;;;;;22.75;11.18;;;;;;;16.44;63.27;100669.03;5056722;28;20413;-81
2023/10/06 01:29:45;;;;;;;21.63;9.73;;;;;;;16.95;62.44;100668.28;5069125;28;20115;-84
2023/10/06 01:32:11;;;;;;;24.60;10.85;;;;;;;16.75;62.38;100658.75;5055466;28;20155;-80
2023/10/06 01:34:40;;;;;;;25.27;10.48;;;;;;;16.58;63.84;100658.78;5051431;28;20033;-81
2023/10/06 01:37:07;;;;;;;23.02;9.80;;;;;;;16.48;64.10;100647.84;5052389;28;20028;-84
2023/10/06 01:39:35;;;;;;;20.08;9.55;;;;;;;16.35;64.07;100648.97;5048948;28;20033;-81
2023/10/06 01:42:06;;;;;;;;;;;;;;;16.14;65.58;100663.09;5058178;28;20047;-81
2023/10/06 01:44:34;;;;;;;20.63;9.10;;;;;;;16.09;65.05;100655.75;5055644;28;19927;-80
2023/10/06 01:47:01;;;;;;;19.83;9.10;;;;;;;16.68;62.96;100672.41;5056207;28;20481;-80
2023/10/06 01:49:27;;;;;;;21.05;10.07;;;;;;;16.66;63.18;100654.88;5055565;28;20061;-83
2023/10/06 01:51:53;;;;;;;23.63;9.23;;;;;;;16.17;62.48;100651.88;5053530;28;20028;-80
2023/10/06 01:54:19;;;;;;;26.23;9.05;;;;;;;16.08;64.18;100681.06;5057119;28;20039;-81
2023/10/06 01:56:46;;;;;;;20.80;9.57;;;;;;;15.31;63.83;100644.50;5057185;28;20044;-80
2023/10/06 01:59:14;;;;;;;22.15;9.98;;;;;;;15.33;64.88;100682.72;5057521;28;20469;-81
2023/10/06 02:01:41;;;;;;;19.95;9.68;;;;;;;15.15;67.57;100689.03;5050178;28;20033;-80
2023/10/06 02:04:19;;;;;;;19.35;8.77;;;;;;;15.46;67.42;100676.25;5061070;28;20490;-80
2023/10/06 02:06:45;;;;;;;19.55;9.05;;;;;;;15.36;67.26;100662.59;5062758;28;20039;-80
2023/10/06 02:09:20;;;;;;;17.25;8.23;;;;;;;15.79;66.76;100674.81;5063398;28;20089;-81
2023/10/06 02:11:46;;;;;;;16.90;8.13;;;;;;;16.02;66.15;100682.81;5067252;28;20074;-81
2023/10/06 02:14:17;;;;;;;14.65;7.82;;;;;;;16.24;64.61;100684.81;5053549;28;20681;-80
2023/10/06 02:16:44;;;;;;;15.15;7.35;;;;;;;15.68;65.43;100673.75;5051895;28;20036;-83
2023/10/06 02:19:10;;;;;;;15.60;7.47;;;;;;;15.48;64.69;100687.59;5050757;28;20021;-80
2023/10/06 02:21:42;;;;;;;17.52;7.75;;;;;;;15.51;67.20;100689.81;5051063;28;20033;-82
2023/10/06 02:24:08;;;;;;;16.48;8.48;;;;;;;15.70;66.02;100678.91;5050741;28;20063;-81
2023/10/06 02:26:38;;;;;;;17.48;8.15;;;;;;;15.91;66.15;100696.31;5055127;28;20083;-80
2023/10/06 02:29:11;;;;;;;17.70;8.48;;;;;;;15.61;66.86;100706.16;5049623;28;20035;-83
2023/10/06 02:31:41;;;;;;;20.38;8.55;;;;;;;15.37;67.89;100707.25;5049959;28;20049;-83
2023/10/06 02:34:12;;;;;;;16.70;7.80;;;;;;;15.05;68.22;100681.53;5051435;28;20043;-81
2023/10/06 02:36:38;;;;;;;19.60;8.90;;;;;;;15.44;66.77;100699.88;5056904;28;20109;-81
2023/10/06 02:39:06;;;;;;;19.35;8.57;;;;;;;15.08;67.23;100677.59;5053176;28;20041;-81
2023/10/06 02:41:32;;;;;;;17.63;8.48;;;;;;;15.04;68.40;100692.53;5053612;28;20060;-81
2023/10/06 02:44:08;;;;;;;17.95;8.40;;;;;;;15.50;67.85;100700.81;5050911;28;20118;-80
2023/10/06 02:46:36;;;;;;;17.00;7.95;;;;;;;15.35;67.48;100685.16;5050838;28;20774;-81
2023/10/06 02:49:08;;;;;;;18.10;8.90;;;;;;;15.72;67.17;100699.16;5053215;28;20056;-80
2023/10/06 02:51:41;;;;;;;18.77;8.50;;;;;;;15.79;65.58;100659.53;5052083;28;20093;-81
2023/10/06 02:56:40;;;;;;;15.80;8.00;;;;;;;16.12;64.65;100660.69;5069270;28;20085;-80
2023/10/06 02:59:21;;;;;;;;;;;;;;;16.64;63.32;100681.22;5060995;28;20482;-81
2023/10/06 03:02:00;;;;;;;16.52;8.75;;;;;;;16.06;64.44;100678.59;5051997;28;19915;-80
2023/10/06 03:04:27;;;;;;;17.80;8.35;;;;;;;15.95;64.82;100663.28;5065440;28;20025;-82
2023/10/06 03:06:57;;;;;;;15.73;7.93;;;;;;;15.52;66.00;100659.19;5043601;28;20029;-80
2023/10/06 03:09:47;;;;;;;29.70;13.70;;;;;;;15.45;66.00;100693.47;5052365;28;20083;-80
2023/10/06 03:12:34;;;;;;;28.95;14.38;;;;;;;14.79;68.71;100644.41;5050839;28;20506;-80
2023/10/06 03:14:58;;;;;;;27.50;13.70;;;;;;;15.48;66.49;100682.22;5051382;28;20102;-80
2023/10/06 03:17:24;;;;;;;30.27;15.98;;;;;;;15.00;65.86;100681.44;5055526;28;20029;-80
2023/10/06 03:22:40;;;;;;;24.10;12.43;;;;;;;15.51;65.44;100681.75;5051861;28;20048;-81
2023/10/06 03:25:16;;;;;;;26.58;12.40;;;;;;;15.44;64.04;100681.06;5035426;28;20095;-80
2023/10/06 03:27:42;;;;;;;22.13;10.73;;;;;;;14.65;69.50;100676.03;5051612;28;20060;-80
2023/10/06 03:30:18;;;;;;;19.40;9.65;;;;;;;15.16;66.46;100687.97;5052637;28;20045;-80
2023/10/06 03:32:50;;;;;;;19.23;9.10;;;;;;;14.73;67.69;100683.75;5050406;28;20094;-80
2023/10/06 03:35:35;;;;;;;19.80;9.13;;;;;;;14.32;68.63;100674.63;5049689;28;20426;-80
2023/10/06 03:40:58;;;;;;;21.70;9.35;;;;;;;13.76;71.47;100683.84;5052255;28;20037;-80
2023/10/06 03:43:33;;;;;;;19.70;9.27;;;;;;;14.12;71.08;100701.75;5050708;28;20540;-81
2023/10/06 03:46:00;;;;;;;17.65;8.52;;;;;;;13.61;72.70;100690.38;5052156;28;20135;-80
2023/10/06 03:48:29;;;;;;;16.50;8.50;;;;;;;13.73;71.44;100657.47;5053694;28;20052;-80
2023/10/06 03:50:55;;;;;;;20.30;8.90;;;;;;;13.56;71.49;100708.16;5061264;28;20486;-80
2023/10/06 03:53:23;;;;;;;17.02;9.15;;;;;;;13.56;72.17;100695.59;5054314;28;20118;-81
2023/10/06 03:55:48;;;;;;;18.58;8.95;;;;;;;14.20;71.92;100701.41;5051513;28;20047;-81
2023/10/06 03:58:16;;;;;;;18.85;9.02;;;;;;;14.15;71.29;100670.94;5057314;28;20413;-80
2023/10/06 04:00:47;;;;;;;18.15;8.75;;;;;;;14.69;69.14;100687.94;5060412;28;20432;-82
2023/10/06 04:03:14;;;;;;;17.65;8.32;;;;;;;15.09;67.93;100699.88;5065944;28;20537;-83
2023/10/06 04:05:48;;;;;;;18.23;9.20;;;;;;;15.30;66.95;100706.53;5066088;28;20056;-80
2023/10/06 04:08:16;;;;;;;17.80;9.30;;;;;;;15.42;65.97;100705.47;5050174;28;20025;-80
2023/10/06 04:10:43;;;;;;;19.02;9.48;;;;;;;15.12;66.69;100677.91;5051017;28;20068;-83
2023/10/06 04:13:10;;;;;;;19.23;8.57;;;;;;;14.73;67.62;100670.31;5050878;28;20083;-80
2023/10/06 04:15:43;;;;;;;21.17;9.30;;;;;;;14.77;67.88;100676.88;5066240;28;20390;-81
2023/10/06 04:18:10;;;;;;;21.35;9.05;;;;;;;15.33;67.30;100684.59;5066209;28;20108;-80
2023/10/06 04:20:39;;;;;;;21.75;9.52;;;;;;;14.51;66.96;100655.78;5052664;28;20436;-80
2023/10/06 04:23:06;;;;;;;19.40;9.52;;;;;;;14.88;67.69;100693.22;5069652;28;21868;-80
2023/10/06 04:25:37;;;;;;;21.77;9.25;;;;;;;14.92;68.73;100699.78;5063985;28;20029;-80
2023/10/06 04:28:16;;;;;;;27.55;10.38;;;;;;;14.72;67.74;100668.69;5052129;28;20024;-80
2023/10/06 04:30:43;;;;;;;24.08;10.88;;;;;;;14.94;68.95;100690.44;5052444;28;20032;-81
2023/10/06 04:33:14;;;;;;;24.73;10.10;;;;;;;15.26;66.99;100674.78;5069819;28;20432;-80
2023/10/06 04:35:42;;;;;;;20.80;9.98;;;;;;;14.93;69.16;100690.66;5047132;28;20110;-80
2023/10/06 04:38:10;;;;;;;27.80;13.27;;;;;;;15.37;67.60;100707.25;5050863;28;20033;-80
2023/10/06 04:40:40;;;;;;;30.95;13.75;;;;;;;15.34;67.20;100680.84;5048287;28;20105;-80
2023/10/06 04:43:07;;;;;;;27.50;11.82;;;;;;;15.48;67.16;100717.16;5049208;28;20025;-82
2023/10/06 04:45:32;;;;;;;22.85;11.38;;;;;;;14.93;67.96;100699.50;5049724;28;20082;-80
2023/10/06 04:48:01;;;;;;;31.23;11.82;;;;;;;14.94;69.01;100719.16;5048500;28;20049;-80
2023/10/06 04:50:30;;;;;;;20.33;10.25;;;;;;;14.56;70.11;100728.41;5061702;28;20047;-80
2023/10/06 04:52:58;;;;;;;22.58;10.38;;;;;;;14.17;71.65;100699.19;5066751;28;20108;-81
2023/10/06 04:55:24;;;;;;;24.48;10.35;;;;;;;14.23;72.52;100724.28;5057909;28;20029;-80
2023/10/06 04:57:49;;;;;;;20.70;10.88;;;;;;;14.32;73.05;100706.81;5065461;28;20059;-80
2023/10/06 05:00:19;;;;;;;20.55;9.60;;;;;;;14.67;72.16;100722.25;5053700;28;20410;-80
2023/10/06 05:02:50;;;;;;;21.02;10.50;;;;;;;14.85;71.50;100715.97;5066566;28;20111;-80
2023/10/06 05:05:20;;;;;;;22.08;9.55;;;;;;;14.72;71.49;100702.78;5066038;28;20091;-81
2023/10/06 05:07:53;;;;;;;21.92;9.40;;;;;;;15.17;70.19;100705.72;5058342;28;20029;-80
2023/10/06 05:10:25;;;;;;;18.63;9.18;;;;;;;15.44;69.64;100729.44;5050252;28;20116;-80
2023/10/06 05:12:51;;;;;;;18.48;10.57;;;;;;;15.92;67.55;100717.59;5063814;28;20047;-80
2023/10/06 05:15:26;;;;;;;18.55;9.13;;;;;;;15.54;67.64;100691.22;5062461;28;20029;-79
2023/10/06 05:17:56;;;;;;;21.52;10.23;;;;;;;15.89;67.17;100744.13;5067426;28;20386;-80
2023/10/06 05:20:32;;;;;;;22.17;10.60;;;;;;;15.73;68.00;100741.13;5059696;28;20028;-81
2023/10/06 05:23:14;;;;;;;24.38;10.90;;;;;;;15.66;69.51;100743.91;5058147;28;20037;-80
2023/10/06 05:25:47;;;;;;;21.95;10.18;;;;;;;15.63;69.09;100749.78;5062582;28;20040;-80
2023/10/06 05:28:16;;;;;;;22.25;9.35;;;;;;;15.63;68.94;100755.16;5059827;28;20052;-80
2023/10/06 05:30:46;;;;;;;24.50;10.25;;;;;;;15.56;69.05;100727.56;5064740;28;20042;-82
2023/10/06 05:33:14;;;;;;;20.85;10.85;;;;;;;15.50;69.30;100736.56;5064200;28;20084;-80
2023/10/06 05:35:40;;;;;;;24.25;9.82;;;;;;;15.72;68.79;100752.09;5065917;28;20029;-84
2023/10/06 05:38:13;;;;;;;25.15;10.25;;;;;;;15.77;69.28;100745.00;5063439;28;20039;-83
2023/10/06 05:40:40;;;;;;;24.05;10.82;;;;;;;15.88;67.15;100754.09;5074120;28;20032;-81
2023/10/06 05:43:06;;;;;;;21.30;10.17;;;;;;;15.74;68.79;100755.41;5071939;28;20029;-84
2023/10/06 05:45:35;;;;;;;23.75;10.63;;;;;;;15.79;69.11;100752.81;5081092;28;20047;-82
2023/10/06 05:48:06;;;;;;;22.60;10.23;;;;;;;15.80;68.17;100749.88;5077941;28;20095;-81
2023/10/06 05:50:35;;;;;;;22.20;10.70;;;;;;;15.90;68.62;100759.25;5081975;28;20033;-81
2023/10/06 05:53:19;;;;;;;24.63;11.48;;;;;;;15.80;69.18;100746.38;5069406;28;20040;-83
2023/10/06 05:55:49;;;;;;;22.10;11.32;;;;;;;15.68;69.09;100747.19;5072339;28;20020;-81
2023/10/06 05:58:16;;;;;;;27.20;12.45;;;;;;;15.81;69.33;100762.28;5071224;28;20091;-81
2023/10/06 06:03:45;;;;;;;22.17;11.27;;;;;;;16.06;68.60;100753.94;5053399;28;20446;-80
2023/10/06 06:06:10;;;;;;;18.48;10.63;;;;;;;15.98;69.17;100753.50;5055617;28;20482;-83
2023/10/06 06:08:39;;;;;;;20.45;11.15;;;;;;;16.12;68.38;100762.09;5058000;28;20040;-78
2023/10/06 06:11:06;;;;;;;21.02;10.60;;;;;;;16.25;68.29;100761.81;5061421;28;20421;-79
2023/10/06 06:13:33;;;;;;;27.33;12.13;;;;;;;16.36;67.12;100781.66;5057416;28;20027;-80
2023/10/06 06:15:59;;;;;;;22.98;10.57;;;;;;;16.24;69.02;100787.09;5058073;28;20120;-80
2023/10/06 06:18:27;;;;;;;21.20;10.40;;;;;;;16.53;70.67;100779.84;5054596;28;20036;-80
2023/10/06 06:20:53;;;;;;;22.25;10.27;;;;;;;16.70;66.39;100779.88;5053603;28;20103;-80
2023/10/06 06:23:20;;;;;;;22.08;11.18;;;;;;;16.83;67.66;100779.59;5065589;28;20123;-79
2023/10/06 06:25:46;;;;;;;21.33;9.60;;;;;;;16.86;66.92;100778.31;5055568;28;20056;-83
2023/10/06 06:28:12;;;;;;;26.15;9.85;;;;;;;16.82;66.21;100786.06;5055158;28;20037;-80
2023/10/06 06:30:42;;;;;;;18.58;9.18;;;;;;;16.79;66.55;100794.59;5057224;28;20429;-80
2023/10/06 06:33:09;;;;;;;18.73;8.85;;;;;;;16.67;66.46;100777.66;5057783;28;20109;-79
2023/10/06 06:35:35;;;;;;;22.20;9.85;;;;;;;16.80;66.71;100773.88;5058443;28;20032;-79
2023/10/06 06:38:05;;;;;;;16.60;7.95;;;;;;;17.06;66.15;100772.44;5055779;28;20104;-80
2023/10/06 06:40:32;;;;;;;17.67;8.20;;;;;;;17.36;64.16;100799.06;5055623;28;20040;-80
2023/10/06 06:42:59;;;;;;;23.83;9.18;;;;;;;17.50;63.40;100798.75;5054904;28;20021;-79
2023/10/06 06:45:25;;;;;;;22.98;9.00;;;;;;;17.57;63.78;100797.50;5054296;28;20170;-79
2023/10/06 06:47:51;;;;;;;22.60;9.35;;;;;;;17.45;64.48;100796.78;5055965;28;20123;-79
2023/10/06 06:50:17;;;;;;;22.77;9.02;;;;;;;17.72;63.32;100782.59;5053424;28;20021;-80
2023/10/06 06:52:44;;;;;;;17.02;7.45;;;;;;;17.90;62.56;100801.22;5053515;28;20044;-79
2023/10/06 06:55:13;;;;;;;20.35;8.73;;;;;;;17.80;62.53;100776.78;5050977;28;20036;-80
2023/10/06 06:57:49;;;;;;;16.77;8.50;;;;;;;17.92;63.74;100803.66;5052759;28;20617;-80
2023/10/06 07:00:24;;;;;;;19.25;8.70;;;;;;;18.04;62.74;100789.00;5050882;28;20047;-81
2023/10/06 07:02:51;;;;;;;21.02;8.43;;;;;;;18.37;61.85;100794.50;5050141;28;20037;-82
2023/10/06 07:05:20;;;;;;;21.50;8.55;;;;;;;18.58;60.40;100799.06;5065377;28;20105;-81
2023/10/06 07:07:47;;;;;;;18.48;8.50;;;;;;;18.55;61.02;100772.56;5050761;28;20025;-81
2023/10/06 07:10:15;;;;;;;17.33;7.65;;;;;;;18.79;59.58;100773.09;5053695;28;20040;-81
2023/10/06 07:12:44;;;;;;;17.15;7.70;;;;;;;19.11;59.26;100791.22;5058565;28;20099;-84
2023/10/06 07:15:19;;;;;;;18.02;8.95;;;;;;;19.67;57.63;100799.69;5051447;28;20037;-79
2023/10/06 07:17:55;;;;;;;15.55;8.30;;;;;;;19.63;56.74;100793.19;5047629;28;20029;-80
2023/10/06 07:20:27;;;;;;;18.42;7.57;;;;;;;19.76;57.17;100781.13;5069198;28;20036;-80
2023/10/06 07:22:54;;;;;;;17.90;7.50;;;;;;;19.93;56.11;100782.84;5030436;28;20033;-80
2023/10/06 07:25:24;;;;;;;14.18;7.43;;;;;;;20.15;55.52;100790.78;5070742;28;20064;-81
2023/10/06 07:27:53;;;;;;;18.65;7.35;;;;;;;20.20;55.29;100790.78;5064295;28;20501;-81
2023/10/06 07:30:22;;;;;;;19.05;8.30;;;;;;;19.88;56.71;100751.16;5069268;28;20046;-83
2023/10/06 07:32:47;;;;;;;15.65;7.32;;;;;;;20.19;55.22;100775.63;5058680;28;20127;-82
2023/10/06 07:35:17;;;;;;;14.82;7.63;;;;;;;20.38;54.05;100790.31;5071965;28;20142;-81
2023/10/06 07:37:43;;;;;;;16.50;7.78;;;;;;;20.30;55.12;100785.41;5067730;28;20043;-80
2023/10/06 07:40:13;;;;;;;16.30;7.82;;;;;;;20.36;54.02;100784.34;5056817;28;20581;-82
2023/10/06 07:42:44;;;;;;;17.15;7.07;;;;;;;20.10;54.73;100759.06;5067574;28;20060;-80
2023/10/06 07:45:10;;;;;;;21.92;8.02;;;;;;;20.56;54.70;100752.97;5055898;28;20025;-80
2023/10/06 07:47:37;;;;;;;13.90;7.13;;;;;;;20.87;53.72;100759.25;5050826;28;20055;-81
2023/10/06 07:50:05;;;;;;;15.85;7.65;;;;;;;21.23;51.83;100781.75;5050562;28;20033;-81
2023/10/06 07:52:32;;;;;;;15.13;7.80;;;;;;;21.31;51.14;100756.00;5063006;28;20036;-81
2023/10/06 07:54:57;;;;;;;20.05;7.88;;;;;;;21.42;51.24;100771.19;5049817;28;20305;-81
2023/10/06 07:57:25;;;;;;;19.20;7.72;;;;;;;21.64;50.89;100770.88;5049657;28;20055;-81
2023/10/06 07:59:50;;;;;;;15.90;7.05;;;;;;;21.83;50.14;100770.25;5049645;28;20566;-81
2023/10/06 08:02:16;;;;;;;19.77;7.68;;;;;;;22.02;50.97;100771.25;5048492;28;20098;-80
2023/10/06 08:04:41;;;;;;;23.35;7.80;;;;;;;22.29;49.00;100780.13;5050820;28;20025;-79
2023/10/06 08:07:06;;;;;;;13.98;7.13;;;;;;;22.33;49.15;100779.31;5050394;28;20021;-80
2023/10/06 08:09:32;;;;;;;19.63;7.65;;;;;;;22.27;49.74;100761.38;5053801;28;20485;-79
2023/10/06 08:11:58;;;;;;;14.80;7.15;;;;;;;22.74;48.10;100778.22;5048235;28;20100;-77
2023/10/06 08:14:24;;;;;;;15.10;7.22;;;;;;;22.76;48.03;100762.44;5048121;28;20029;-80
2023/10/06 08:16:50;;;;;;;15.75;6.60;;;;;;;22.90;47.32;100768.06;5050472;28;20017;-79
2023/10/06 08:19:16;;;;;;;17.45;6.50;;;;;;;22.98;47.70;100781.84;5049105;28;20024;-80
2023/10/06 08:21:41;;;;;;;16.55;7.20;;;;;;;23.15;47.18;100765.16;5050602;28;20032;-78
2023/10/06 08:24:27;;;;;;;16.13;6.25;;;;;;;23.68;45.92;100777.97;5050062;28;20028;-80
2023/10/06 08:26:54;;;;;;;17.08;6.45;;;;;;;23.44;45.77;100750.72;5050453;28;20502;-79
2023/10/06 08:29:19;;;;;;;15.77;7.47;;;;;;;23.22;46.15;100756.66;5066529;28;20040;-81
2023/10/06 08:31:46;;;;;;;17.20;7.55;;;;;;;23.24;45.66;100768.88;5051964;28;20029;-80
2023/10/06 08:34:12;;;;;;;16.33;7.05;;;;;;;23.34;45.89;100759.00;5060472;28;20041;-80
2023/10/06 08:36:41;;;;;;;14.05;6.50;;;;;;;23.60;45.10;100764.97;5049587;28;20410;-80
2023/10/06 08:39:08;;;;;;;16.83;6.30;;;;;;;23.49;45.34;100772.44;5062494;28;20048;-80
2023/10/06 08:41:36;;;;;;;15.37;6.43;;;;;;;23.28;45.84;100769.13;5055187;28;20112;-81
2023/10/06 08:44:02;;;;;;;16.52;7.43;;;;;;;23.58;44.71;100765.28;5051186;28;20599;-79
2023/10/06 08:46:31;;;;;;;15.77;6.35;;;;;;;23.49;45.03;100779.78;5049832;28;20028;-79
2023/10/06 08:48:58;;;;;;;18.20;7.05;;;;;;;23.33;45.68;100771.78;5050550;28;20056;-80
2023/10/06 08:51:26;;;;;;;14.98;5.90;;;;;;;23.45;45.26;100761.31;5050250;28;20470;-80
2023/10/06 08:53:55;;;;;;;17.00;6.97;;;;;;;23.71;44.27;100776.56;5049723;28;20020;-82
2023/10/06 08:56:21;;;;;;;13.65;6.43;;;;;;;23.58;43.92;100765.28;5049301;28;20652;-80
2023/10/06 08:58:47;;;;;;;18.33;7.63;;;;;;;23.23;45.86;100748.22;5049798;28;20520;-79
2023/10/06 09:01:13;;;;;;;18.48;7.10;;;;;;;23.68;44.97;100769.81;5050617;28;20033;-79
2023/10/06 09:03:41;;;;;;;18.30;6.82;;;;;;;23.88;44.06;100770.69;5052610;28;20406;-81
2023/10/06 09:06:06;;;;;;;;;;;;;;;23.94;43.87;100773.03;5050850;28;20036;-80
2023/10/06 09:08:50;;;;;;;12.70;5.57;;;;;;;23.57;44.17;100738.31;5056422;28;19916;-78
2023/10/06 09:11:15;;;;;;;16.30;5.90;;;;;;;23.65;44.30;100729.53;5049709;28;20020;-78
2023/10/06 09:13:41;;;;;;;14.73;6.80;;;;;;;23.79;44.65;100762.34;5053031;28;20090;-79
2023/10/06 09:16:07;;;;;;;14.63;6.93;;;;;;;23.78;43.69;100766.16;5049826;28;20032;-80
2023/10/06 09:18:38;;;;;;;16.33;7.38;;;;;;;23.84;43.09;100770.44;5053593;28;20417;-81
2023/10/06 09:21:13;;;;;;;16.85;7.05;;;;;;;23.65;43.40;100743.13;5043328;28;20036;-80
2023/10/06 09:23:41;;;;;;;19.60;6.88;;;;;;;23.65;44.23;100726.81;5050363;28;20037;-81
2023/10/06 09:26:08;;;;;;;19.63;7.55;;;;;;;24.08;43.11;100748.63;5050165;28;20121;-79
2023/10/06 09:28:47;;;;;;;19.13;7.22;;;;;;;24.18;43.16;100762.13;5051143;28;20029;-80
2023/10/06 09:31:12;;;;;;;16.58;6.88;;;;;;;24.13;44.15;100755.91;5050853;28;20048;-83
2023/10/06 09:33:37;;;;;;;15.75;6.63;;;;;;;24.33;43.56;100755.63;5049964;28;20486;-80
2023/10/06 09:36:07;;;;;;;19.00;7.25;;;;;;;24.28;42.02;100750.28;5060310;28;20033;-80
2023/10/06 09:38:36;;;;;;;16.58;6.63;;;;;;;24.06;42.03;100729.84;5055800;28;20035;-80
2023/10/06 09:41:02;;;;;;;12.70;6.07;;;;;;;24.06;42.64;100746.19;5063646;28;20493;-81
2023/10/06 09:43:33;;;;;;;17.27;6.50;;;;;;;24.12;42.66;100730.59;5059591;28;20056;-80
2023/10/06 09:46:06;;;;;;;17.48;6.85;;;;;;;24.32;43.05;100728.69;5055033;28;20033;-81
2023/10/06 09:48:34;;;;;;;13.00;6.47;;;;;;;24.36;42.16;100744.16;5048454;28;20536;-80
2023/10/06 09:51:03;;;;;;;20.60;6.88;;;;;;;24.22;42.91;100711.38;5037562;28;20501;-80
2023/10/06 09:53:30;;;;;;;13.07;6.63;;;;;;;24.62;41.08;100738.34;5064514;28;20086;-79
2023/10/06 09:55:56;;;;;;;16.67;7.18;;;;;;;24.52;42.28;100727.59;5050418;28;20542;-80
2023/10/06 09:58:22;;;;;;;14.45;5.95;;;;;;;24.56;42.33;100714.97;5049880;28;20120;-84
2023/10/06 10:00:49;;;;;;;16.08;6.78;;;;;;;24.71;42.07;100717.47;5050439;28;20032;-80
2023/10/06 10:03:16;;;;;;;16.85;6.43;;;;;;;24.61;41.20;100696.63;5051655;28;20533;-79
2023/10/06 10:05:43;;;;;;;20.13;6.75;;;;;;;24.82;41.35;100718.09;5067716;28;20609;-80
2023/10/06 10:08:10;;;;;;;19.67;7.27;;;;;;;24.94;40.74;100715.72;5050280;28;20088;-80
2023/10/06 10:10:39;;;;;;;18.23;7.10;;;;;;;24.77;42.52;100697.19;5063469;28;20666;-80
2023/10/06 10:13:19;;;;;;;18.05;6.80;;;;;;;25.00;41.04;100708.25;5049423;28;20033;-80
2023/10/06 10:16:36;;;;;;;14.82;7.15;;;;;;;25.01;41.07;100699.78;5059580;28;20120;-80
2023/10/06 10:19:04;;;;;;;;;;;;;;;24.96;41.21;100709.97;5052887;28;20036;-80
2023/10/06 10:21:34;;;;;;;16.00;6.40;;;;;;;25.03;41.10;100691.28;5049650;28;19990;-81
2023/10/06 10:24:05;;;;;;;17.85;6.85;;;;;;;25.46;40.74;100696.50;5049383;28;20395;-81
2023/10/06 10:26:32;;;;;;;14.75;6.75;;;;;;;25.47;40.75;100692.66;5051332;28;20021;-80
2023/10/06 10:29:12;;;;;;;14.63;6.80;;;;;;;25.37;40.12;100685.47;5053088;28;20041;-82
2023/10/06 10:31:51;;;;;;;15.05;6.65;;;;;;;25.16;39.91;100663.19;5055189;28;20494;-80
2023/10/06 10:34:23;;;;;;;14.65;7.40;;;;;;;25.63;39.08;100679.50;5069474;28;20035;-82
2023/10/06 10:36:54;;;;;;;15.75;6.30;;;;;;;25.98;40.04;100666.22;5057124;28;20031;-80
2023/10/06 10:39:22;;;;;;;16.55;6.30;;;;;;;26.10;39.24;100658.28;5056836;28;20515;-80
2023/10/06 10:41:47;;;;;;;;;;;;;;;26.67;37.01;100674.16;5057832;28;20078;-83
2023/10/06 10:44:14;;;;;;;14.85;6.53;;;;;;;26.56;37.06;100670.84;5068978;28;19916;-80
2023/10/06 10:46:50;;;;;;;13.73;6.63;;;;;;;26.21;37.80;100672.50;5058771;28;20091;-80
2023/10/06 10:49:22;;;;;;;18.50;6.75;;;;;;;26.52;38.03;100663.56;5051390;28;20043;-83
2023/10/06 10:51:54;;;;;;;14.45;6.82;;;;;;;26.75;36.58;100632.38;5067774;28;20021;-81
2023/10/06 10:54:26;;;;;;;14.60;6.55;;;;;;;26.60;37.49;100636.31;5052571;28;20120;-81
2023/10/06 10:56:53;;;;;;;15.45;6.63;;;;;;;26.66;36.77;100636.97;5066546;28;20032;-81
2023/10/06 10:59:22;;;;;;;17.52;6.78;;;;;;;27.01;37.03;100637.13;5071552;28;20417;-80
2023/10/06 11:01:51;;;;;;;16.10;7.00;;;;;;;27.42;36.30;100638.75;5068445;28;20024;-82
2023/10/06 11:04:21;;;;;;;16.88;6.45;;;;;;;27.71;36.87;100631.91;5055510;28;20028;-81
2023/10/06 11:06:48;;;;;;;14.50;6.65;;;;;;;27.78;34.41;100615.78;5058814;28;20037;-80
2023/10/06 11:09:26;;;;;;;;;;;;;;;27.63;36.05;100631.56;5052991;28;20037;-81
2023/10/06 11:11:55;;;;;;;17.35;7.47;;;;;;;27.71;35.69;100618.22;5067436;28;19919;-82
2023/10/06 11:14:25;;;;;;;15.38;7.25;;;;;;;27.73;34.79;100613.22;5055099;28;20137;-80
2023/10/06 11:16:52;;;;;;;13.15;6.63;;;;;;;27.47;34.82;100622.19;5064284;28;20028;-81
2023/10/06 11:19:18;;;;;;;14.48;7.82;;;;;;;27.64;34.72;100613.19;5072559;28;20083;-81
2023/10/06 11:21:51;;;;;;;12.52;6.95;;;;;;;27.46;35.71;100606.88;5055985;28;20450;-80
2023/10/06 11:24:27;;;;;;;15.52;7.28;;;;;;;27.45;35.13;100608.81;5067509;28;20028;-80
2023/10/06 11:26:52;;;;;;;14.77;7.22;;;;;;;27.52;35.14;100597.38;5052012;28;20040;-83
2023/10/06 11:29:30;;;;;;;13.88;7.20;;;;;;;27.61;35.30;100602.88;5051779;28;20025;-82
2023/10/06 11:32:00;;;;;;;16.88;7.72;;;;;;;27.49;35.40;100586.25;5054676;28;20029;-80
2023/10/06 11:34:25;;;;;;;15.27;8.00;;;;;;;27.70;34.77;100589.19;5052175;28;20529;-84
2023/10/06 11:36:57;;;;;;;18.52;7.90;;;;;;;28.09;35.33;100606.63;5062154;28;20127;-81
2023/10/06 11:39:26;;;;;;;15.35;7.55;;;;;;;28.28;33.30;100585.16;5051074;28;20506;-84